createdAt,value
2023-02-04T00:01:30.385Z,9.90
2023-02-04T00:05:27.623Z,9.90
2023-02-04T00:09:20.809Z,10.10
2023-02-04T00:13:14.846Z,9.80
2023-02-04T00:17:20.767Z,9.10
2023-02-04T00:21:23.665Z,9.20
2023-02-04T00:25:27.561Z,9.10
2023-02-04T00:29:24.369Z,8.20
2023-02-04T00:33:28.432Z,8.20
2023-02-04T00:37:32.470Z,7.10
2023-02-04T00:41:35.445Z,6.60
2023-02-04T00:45:39.525Z,6.30
2023-02-04T00:49:43.768Z,5.10
2023-02-04T00:53:47.833Z,5.50
2023-02-04T00:57:53.781Z,4.50
2023-02-04T01:01:56.990Z,4.10
2023-02-04T01:06:00.955Z,4.30
2023-02-04T01:10:05.172Z,4.20
2023-02-04T01:14:09.195Z,3.40
2023-02-04T01:17:53.125Z,3.80
2023-02-04T01:21:56.055Z,4.00
2023-02-04T01:25:59.906Z,4.20
2023-02-04T01:30:03.861Z,3.90
2023-02-04T01:34:01.591Z,4.10
2023-02-04T01:38:05.741Z,3.90
2023-02-04T01:41:59.867Z,3.90
2023-02-04T01:45:54.446Z,5.20
2023-02-04T01:49:59.008Z,3.80
2023-02-04T01:53:50.781Z,4.00
2023-02-04T01:57:54.842Z,3.70
2023-02-04T02:04:49.662Z,4.30
2023-02-04T02:07:32.712Z,4.00
2023-02-04T02:10:16.720Z,4.70
2023-02-04T02:12:59.839Z,4.50
2023-02-04T02:15:43.379Z,5.10
2023-02-04T02:18:26.582Z,5.20
2023-02-04T02:21:12.311Z,6.10
2023-02-04T02:24:01.215Z,7.20
2023-02-04T02:26:44.120Z,6.60
2023-02-04T02:29:28.036Z,8.50
2023-02-04T02:32:14.280Z,7.70
2023-02-04T02:34:58.312Z,7.30
2023-02-04T02:37:41.392Z,8.00
2023-02-04T02:40:25.003Z,7.30
2023-02-04T02:43:12.312Z,7.50
2023-02-04T02:45:58.706Z,8.30
2023-02-04T02:48:41.766Z,7.40
2023-02-04T02:51:24.604Z,8.20
2023-02-04T02:54:19.724Z,7.50
2023-02-04T02:57:03.400Z,7.50
2023-02-04T02:59:46.839Z,7.50
2023-02-04T03:02:29.962Z,7.20
2023-02-04T03:05:13.887Z,8.00
2023-02-04T03:07:59.275Z,7.00
2023-02-04T03:10:45.159Z,7.50
2023-02-04T03:13:28.849Z,6.00
2023-02-04T03:16:13.221Z,6.40
2023-02-04T03:18:56.342Z,6.00
2023-02-04T03:21:40.289Z,5.90
2023-02-04T03:24:23.840Z,5.70
2023-02-04T03:27:08.058Z,5.40
2023-02-04T03:29:51.310Z,5.70
2023-02-04T03:32:34.722Z,5.30
2023-02-04T03:35:18.144Z,5.40
2023-02-04T03:38:01.278Z,5.00
2023-02-04T03:40:45.742Z,5.00
2023-02-04T03:43:28.564Z,5.50
2023-02-04T03:46:11.423Z,5.20
2023-02-04T03:51:37.087Z,5.00
2023-02-04T03:57:02.908Z,4.30
2023-02-04T04:02:28.826Z,6.30
2023-02-04T04:05:12.449Z,5.00
2023-02-04T04:07:55.600Z,5.00
2023-02-04T04:10:39.431Z,4.60
2023-02-04T04:13:23.561Z,5.10
2023-02-04T04:18:50.243Z,5.20
2023-02-04T04:21:33.065Z,5.20
2023-02-04T04:26:58.753Z,4.90
2023-02-04T04:32:24.624Z,4.80
2023-02-04T04:35:07.818Z,4.10
2023-02-04T04:37:50.639Z,5.60
2023-02-04T04:43:16.602Z,4.30
2023-02-04T04:48:42.061Z,3.80
2023-02-04T04:51:25.012Z,4.50
2023-02-04T04:54:08.436Z,4.50
2023-02-04T04:56:51.632Z,4.70
2023-02-04T04:59:34.452Z,4.10
2023-02-04T05:05:00.355Z,4.00
2023-02-04T05:07:43.502Z,4.10
2023-02-04T05:10:26.415Z,3.90
2023-02-04T05:13:10.153Z,4.20
2023-02-04T05:15:52.955Z,4.20
2023-02-04T05:21:18.592Z,3.60
2023-02-04T05:26:44.315Z,3.90
2023-02-04T05:29:27.499Z,3.60
2023-02-04T05:32:10.299Z,4.00
2023-02-04T05:37:36.046Z,4.00
2023-02-04T05:43:02.124Z,4.00
2023-02-04T05:45:45.113Z,4.20
2023-02-04T05:48:27.988Z,4.20
2023-02-04T05:53:53.888Z,3.90
2023-02-04T05:56:37.742Z,3.70
2023-02-04T05:59:20.611Z,3.40
2023-02-04T06:04:46.353Z,4.70
2023-02-04T06:07:29.147Z,4.70
2023-02-04T06:10:11.982Z,5.50
2023-02-04T06:15:37.990Z,6.70
2023-02-04T06:21:04.878Z,5.00
2023-02-04T06:23:47.736Z,6.60
2023-02-04T06:29:13.525Z,6.90
2023-02-04T06:31:56.459Z,8.20
2023-02-04T06:34:39.450Z,7.20
2023-02-04T06:37:24.309Z,6.40
2023-02-04T06:40:09.095Z,5.60
2023-02-04T06:42:51.959Z,5.50
2023-02-04T06:48:19.122Z,5.10
2023-02-04T06:51:02.218Z,4.20
2023-02-04T06:53:46.139Z,3.90
2023-02-04T06:56:30.222Z,4.20
2023-02-04T06:59:13.013Z,4.40
2023-02-04T07:01:55.794Z,4.60
2023-02-04T07:07:21.466Z,3.10
2023-02-04T07:12:47.769Z,3.90
2023-02-04T07:18:15.480Z,3.50
2023-02-04T07:23:41.297Z,2.80
2023-02-04T07:26:24.168Z,2.40
2023-02-04T07:31:55.281Z,3.00
2023-02-04T07:34:38.299Z,2.90
2023-02-04T07:37:21.225Z,2.30
2023-02-04T07:45:32.325Z,2.50
2023-02-04T07:48:15.903Z,2.60
2023-02-04T07:53:41.489Z,1.90
2023-02-04T07:59:07.085Z,2.60
2023-02-04T08:04:33.083Z,2.40
2023-02-04T08:07:15.909Z,2.20
2023-02-04T08:12:41.412Z,2.10
2023-02-04T08:18:06.901Z,2.20
2023-02-04T08:23:33.414Z,2.50
2023-02-04T08:26:16.427Z,2.90
2023-02-04T08:28:59.257Z,2.60
2023-02-04T08:34:25.023Z,2.00
2023-02-04T08:37:08.068Z,2.10
2023-02-04T08:39:50.970Z,2.60
2023-02-04T08:42:34.932Z,2.80
2023-02-04T08:45:17.766Z,2.20
2023-02-04T08:50:43.889Z,2.30
2023-02-04T08:53:26.814Z,2.00
2023-02-04T08:56:10.748Z,2.00
2023-02-04T08:58:53.668Z,2.50
2023-02-04T09:01:36.695Z,2.60
2023-02-04T09:04:21.450Z,2.10
2023-02-04T09:07:04.458Z,2.70
2023-02-04T09:09:47.364Z,2.60
2023-02-04T09:12:30.361Z,2.80
2023-02-04T09:15:13.411Z,2.60
2023-02-04T09:18:04.738Z,2.80
2023-02-04T09:20:52.771Z,2.80
2023-02-04T09:23:35.717Z,3.70
2023-02-04T09:26:18.640Z,2.90
2023-02-04T09:29:01.487Z,2.00
2023-02-04T09:34:28.118Z,1.70
2023-02-04T09:37:11.008Z,2.40
2023-02-04T09:39:54.904Z,2.30
2023-02-04T09:42:37.840Z,1.50
2023-02-04T09:45:29.161Z,1.80
2023-02-04T09:48:14.498Z,2.20
2023-02-04T09:51:08.629Z,2.90
2023-02-04T09:53:57.078Z,2.50
2023-02-04T09:56:40.642Z,1.70
2023-02-04T09:59:27.881Z,1.80
2023-02-04T10:02:16.990Z,1.70
2023-02-04T10:04:59.913Z,2.30
2023-02-04T10:10:27.967Z,2.20
2023-02-04T10:13:18.537Z,2.40
2023-02-04T10:16:03.976Z,1.70
2023-02-04T10:18:48.069Z,1.90
2023-02-04T10:21:33.032Z,2.50
2023-02-04T10:24:21.572Z,2.30
2023-02-04T10:27:12.247Z,2.60
2023-02-04T10:29:57.528Z,1.90
2023-02-04T10:32:40.553Z,2.70
2023-02-04T10:35:24.279Z,2.30
2023-02-04T10:38:07.697Z,2.30
2023-02-04T10:41:14.317Z,1.70
2023-02-04T10:44:04.765Z,2.50
2023-02-04T10:46:48.542Z,2.20
2023-02-04T10:49:32.532Z,2.00
2023-02-04T10:52:20.229Z,2.40
2023-02-04T10:55:07.064Z,2.30
2023-02-04T10:57:52.377Z,2.20
2023-02-04T11:00:35.220Z,2.20
2023-02-04T11:06:14.844Z,2.20
2023-02-04T11:08:59.918Z,2.00
2023-02-04T11:11:50.441Z,2.20
2023-02-04T11:14:33.887Z,2.00
2023-02-04T11:17:21.613Z,1.70
2023-02-04T11:20:16.382Z,2.00
2023-02-04T11:23:25.835Z,1.80
2023-02-04T11:26:20.299Z,3.90
2023-02-04T11:29:03.067Z,2.30
2023-02-04T11:34:44.885Z,3.10
2023-02-04T11:37:27.895Z,2.20
2023-02-04T11:40:30.518Z,1.90
2023-02-04T11:43:16.096Z,2.50
2023-02-04T11:46:29.207Z,2.40
2023-02-04T11:49:20.130Z,2.10
2023-02-04T11:52:08.801Z,2.30
2023-02-04T11:54:59.194Z,2.00
2023-02-04T11:57:43.956Z,1.50
2023-02-04T12:00:32.375Z,2.50
2023-02-04T12:03:36.401Z,2.10
2023-02-04T12:06:24.917Z,2.00
2023-02-04T12:09:16.671Z,1.90
2023-02-04T12:12:01.841Z,2.60
2023-02-04T12:14:44.695Z,2.00
2023-02-04T12:20:13.431Z,2.30
2023-02-04T12:22:57.440Z,1.50
2023-02-04T12:25:40.857Z,1.80
2023-02-04T12:31:06.787Z,2.20
2023-02-04T12:33:49.990Z,1.90
2023-02-04T12:36:32.795Z,1.70
2023-02-04T12:41:58.743Z,1.40
2023-02-04T12:44:41.663Z,2.00
2023-02-04T12:47:24.554Z,1.60
2023-02-04T12:52:55.170Z,1.50
2023-02-04T12:55:38.191Z,1.60
2023-02-04T12:58:20.993Z,1.20
2023-02-04T13:03:47.797Z,2.20
2023-02-04T13:06:30.915Z,2.10
2023-02-04T13:09:13.797Z,1.40
2023-02-04T13:11:56.581Z,1.40
2023-02-04T13:17:22.790Z,3.90
2023-02-04T13:20:06.463Z,4.00
2023-02-04T13:22:49.268Z,3.00
2023-02-04T13:28:15.772Z,2.80
2023-02-04T13:30:58.672Z,2.30
2023-02-04T13:33:41.698Z,3.00
2023-02-04T13:36:27.790Z,3.10
2023-02-04T13:39:11.682Z,1.80
2023-02-04T13:41:54.644Z,2.60
2023-02-04T13:44:37.480Z,2.00
2023-02-04T13:47:20.313Z,2.20
2023-02-04T13:52:46.345Z,3.10
2023-02-04T13:58:12.440Z,2.80
2023-02-04T14:00:57.635Z,4.10
2023-02-04T14:03:41.074Z,3.40
2023-02-04T14:06:25.380Z,3.20
2023-02-04T14:09:08.192Z,2.60
2023-02-04T14:14:34.741Z,2.90
2023-02-04T14:17:17.664Z,3.40
2023-02-04T14:20:00.496Z,4.40
2023-02-04T14:25:26.487Z,3.20
2023-02-04T14:30:52.466Z,4.30
2023-02-04T14:33:35.269Z,3.40
2023-02-04T14:41:44.565Z,3.20
2023-02-04T14:44:27.353Z,3.60
2023-02-04T14:49:52.807Z,2.70
2023-02-04T14:52:35.606Z,3.20
2023-02-04T14:58:01.318Z,3.00
2023-02-04T15:00:44.910Z,3.10
2023-02-04T15:03:27.768Z,2.60
2023-02-04T15:08:53.435Z,3.20
2023-02-04T15:14:19.559Z,3.30
2023-02-04T15:17:03.809Z,3.20
2023-02-04T15:19:46.750Z,4.20
2023-02-04T15:22:29.885Z,3.70
2023-02-04T15:25:13.203Z,3.00
2023-02-04T15:27:56.072Z,4.70
2023-02-04T15:30:39.421Z,2.90
2023-02-04T15:33:22.430Z,3.40
2023-02-04T15:36:05.848Z,3.70
2023-02-04T15:38:49.179Z,2.60
2023-02-04T15:41:32.693Z,3.30
2023-02-04T15:44:15.563Z,3.50
2023-02-04T15:49:41.047Z,4.40
2023-02-04T15:55:09.126Z,4.50
2023-02-04T15:57:52.194Z,4.20
2023-02-04T16:00:35.506Z,4.80
2023-02-04T16:03:18.726Z,5.00
2023-02-04T16:08:44.655Z,4.90
2023-02-04T16:14:10.288Z,4.40
2023-02-04T16:19:36.777Z,5.70
2023-02-04T16:22:19.674Z,5.90
2023-02-04T16:25:02.556Z,5.60
2023-02-04T16:30:28.357Z,6.30
2023-02-04T16:33:12.489Z,7.90
2023-02-04T16:36:01.521Z,6.20
2023-02-04T16:38:44.519Z,5.10
2023-02-04T16:41:27.388Z,5.40
2023-02-04T16:46:53.308Z,4.90
2023-02-04T16:49:36.429Z,4.60
2023-02-04T16:52:19.544Z,3.60
2023-02-04T16:55:02.377Z,4.30
2023-02-04T17:00:28.084Z,3.10
2023-02-04T17:05:57.836Z,3.10
2023-02-04T17:11:30.338Z,3.20
2023-02-04T17:14:17.303Z,4.00
2023-02-04T17:17:00.226Z,4.00
2023-02-04T17:19:43.041Z,3.50
2023-02-04T17:25:08.684Z,3.40
2023-02-04T17:30:34.581Z,3.00
2023-02-04T17:36:02.246Z,3.90
2023-02-04T17:38:45.076Z,4.10
2023-02-04T17:47:00.326Z,4.60
2023-02-04T17:49:43.653Z,4.00
2023-02-04T17:55:23.029Z,5.10
2023-02-04T17:58:15.668Z,6.70
2023-02-04T18:00:59.137Z,4.20
2023-02-04T18:03:43.938Z,5.70
2023-02-04T18:06:29.194Z,4.60
2023-02-04T18:09:15.805Z,3.30
2023-02-04T18:11:58.737Z,2.90
2023-02-04T18:17:28.749Z,3.20
2023-02-04T18:20:19.065Z,3.60
2023-02-04T18:23:06.138Z,3.80
2023-02-04T18:25:49.049Z,4.20
2023-02-04T18:28:35.972Z,4.40
2023-02-04T18:31:45.721Z,5.10
2023-02-04T18:34:45.029Z,4.30
2023-02-04T18:37:36.586Z,4.10
2023-02-04T18:40:31.555Z,3.40
2023-02-04T18:43:27.766Z,3.50
2023-02-04T18:46:24.586Z,3.80
2023-02-04T18:49:27.079Z,3.50
2023-02-04T18:52:18.176Z,4.70
2023-02-04T18:55:02.117Z,6.30
2023-02-04T18:57:45.027Z,6.30
2023-02-04T19:00:32.432Z,5.40
2023-02-04T19:03:27.478Z,4.70
2023-02-04T19:06:37.383Z,4.20
2023-02-04T19:09:32.744Z,4.00
2023-02-04T19:12:22.390Z,4.00
2023-02-04T19:15:30.076Z,4.20
2023-02-04T19:18:24.635Z,4.80
2023-02-04T19:21:22.574Z,5.30
2023-02-04T19:24:17.802Z,4.80
2023-02-04T19:27:02.600Z,4.40
2023-02-04T19:29:45.516Z,6.10
2023-02-04T19:35:18.873Z,5.50
2023-02-04T19:38:12.538Z,4.70
2023-02-04T19:40:55.492Z,4.30
2023-02-04T19:43:38.615Z,4.90
2023-02-04T19:46:24.923Z,5.20
2023-02-04T19:49:21.006Z,4.60
2023-02-04T19:52:21.385Z,4.90
2023-02-04T19:55:25.117Z,5.20
2023-02-04T19:58:38.005Z,5.10
2023-02-04T20:01:21.191Z,6.50
2023-02-04T20:04:14.087Z,6.30
2023-02-04T20:06:56.908Z,5.60
2023-02-04T20:09:39.818Z,6.20
2023-02-04T20:15:21.025Z,6.40
2023-02-04T20:18:17.089Z,6.80
2023-02-04T20:20:59.984Z,5.80
2023-02-04T20:23:42.846Z,6.50
2023-02-04T20:29:21.776Z,6.10
2023-02-04T20:32:19.456Z,8.00
2023-02-04T20:35:08.044Z,6.80
2023-02-04T20:37:58.344Z,6.10
2023-02-04T20:40:42.789Z,7.10
2023-02-04T20:43:26.625Z,6.30
2023-02-04T20:46:20.030Z,6.90
2023-02-04T20:49:18.955Z,6.70
2023-02-04T20:52:01.970Z,5.90
2023-02-04T20:54:45.000Z,6.40
2023-02-04T20:57:27.937Z,6.30
2023-02-04T21:00:34.334Z,6.50
2023-02-04T21:03:36.951Z,7.00
2023-02-04T21:06:29.609Z,5.70
2023-02-04T21:09:25.250Z,6.30
2023-02-04T21:12:08.981Z,5.90
2023-02-04T21:14:52.239Z,6.20
2023-02-04T21:17:35.128Z,6.60
2023-02-04T21:23:01.812Z,5.50
2023-02-04T21:25:45.236Z,5.70
2023-02-04T21:28:30.564Z,5.00
2023-02-04T21:31:13.733Z,4.40
2023-02-04T21:33:57.244Z,4.50
2023-02-04T21:36:40.153Z,4.90
2023-02-04T21:39:23.157Z,6.00
2023-02-04T21:42:13.459Z,4.70
2023-02-04T21:45:01.390Z,4.80
2023-02-04T21:47:45.616Z,4.80
2023-02-04T21:50:29.730Z,4.30
2023-02-04T21:53:13.621Z,4.10
2023-02-04T21:55:58.446Z,4.30
2023-02-04T21:58:42.185Z,4.40
2023-02-04T22:04:08.116Z,4.20
2023-02-04T22:09:33.852Z,4.00
2023-02-04T22:12:18.413Z,4.30
2023-02-04T22:15:04.219Z,3.90
2023-02-04T22:17:48.333Z,3.90
2023-02-04T22:20:31.233Z,4.60
2023-02-04T22:25:57.035Z,4.30
2023-02-04T22:31:22.767Z,4.00
2023-02-04T22:34:05.734Z,4.30
2023-02-04T22:39:31.607Z,4.70
2023-02-04T22:44:58.157Z,5.00
2023-02-04T22:47:41.101Z,5.00
2023-02-04T22:50:24.020Z,4.10
2023-02-04T22:55:49.616Z,4.10
2023-02-04T23:01:15.620Z,3.80
2023-02-04T23:03:58.541Z,5.30
2023-02-04T23:06:41.676Z,5.00
2023-02-04T23:12:14.288Z,5.20
2023-02-04T23:14:57.140Z,4.30
2023-02-04T23:20:23.135Z,3.70
2023-02-04T23:23:06.656Z,4.90
2023-02-04T23:25:50.387Z,5.00
2023-02-04T23:28:33.728Z,4.90
2023-02-04T23:31:16.880Z,4.40
2023-02-04T23:33:59.854Z,4.60
2023-02-04T23:36:45.765Z,4.60
2023-02-04T23:39:28.655Z,4.40
2023-02-04T23:44:54.489Z,4.60
2023-02-04T23:47:38.059Z,3.60
2023-02-04T23:53:04.104Z,4.30
2023-02-04T23:55:47.062Z,4.90
2023-02-04T23:58:30.015Z,4.50
